sensor_id;sensor_type;location;lat;lon;timestamp;pressure;altitude;pressure_sealevel;temperature;humidity
58295;BME280;45705;55.592;37.460;2023-07-20T00:02:06;97765.66;;;12.95;100.00
58295;BME280;45705;55.592;37.460;2023-07-20T00:04:33;97761.25;;;12.91;100.00
58295;BME280;45705;55.592;37.460;2023-07-20T00:06:59;97770.66;;;12.93;100.00
58295;BME280;45705;55.592;37.460;2023-07-20T00:09:28;97770.78;;;13.00;100.00
58295;BME280;45705;55.592;37.460;2023-07-20T00:11:54;97768.91;;;12.85;100.00
58295;BME280;45705;55.592;37.460;2023-07-20T00:14:20;97781.66;;;12.97;100.00
58295;BME280;45705;55.592;37.460;2023-07-20T00:16:46;97776.03;;;12.90;100.00
58295;BME280;45705;55.592;37.460;2023-07-20T00:19:14;97773.75;;;12.92;100.00
58295;BME280;45705;55.592;37.460;2023-07-20T00:21:41;97784.59;;;12.88;100.00
58295;BME280;45705;55.592;37.460;2023-07-20T00:24:08;97777.41;;;12.99;100.00
58295;BME280;45705;55.592;37.460;2023-07-20T00:26:34;97780.81;;;12.77;100.00
58295;BME280;45705;55.592;37.460;2023-07-20T00:29:00;97787.44;;;12.76;100.00
58295;BME280;45705;55.592;37.460;2023-07-20T00:31:26;97782.00;;;12.76;100.00
58295;BME280;45705;55.592;37.460;2023-07-20T00:33:52;97785.16;;;12.78;100.00
58295;BME280;45705;55.592;37.460;2023-07-20T00:36:18;97786.72;;;12.79;100.00
58295;BME280;45705;55.592;37.460;2023-07-20T00:38:44;97775.41;;;12.61;100.00
58295;BME280;45705;55.592;37.460;2023-07-20T00:41:10;97771.63;;;12.66;100.00
58295;BME280;45705;55.592;37.460;2023-07-20T00:43:36;97775.16;;;12.66;100.00
58295;BME280;45705;55.592;37.460;2023-07-20T00:46:02;97788.50;;;12.71;100.00
58295;BME280;45705;55.592;37.460;2023-07-20T00:48:29;97782.59;;;12.69;100.00
58295;BME280;45705;55.592;37.460;2023-07-20T00:50:56;97778.81;;;12.74;100.00
58295;BME280;45705;55.592;37.460;2023-07-20T00:53:23;97781.03;;;12.68;100.00
58295;BME280;45705;55.592;37.460;2023-07-20T00:55:49;97791.44;;;12.63;100.00
58295;BME280;45705;55.592;37.460;2023-07-20T00:58:15;97785.69;;;12.68;100.00
58295;BME280;45705;55.592;37.460;2023-07-20T01:00:41;97787.19;;;12.65;100.00
58295;BME280;45705;55.592;37.460;2023-07-20T01:03:07;97796.97;;;12.50;100.00
58295;BME280;45705;55.592;37.460;2023-07-20T01:05:42;97784.94;;;12.51;100.00
58295;BME280;45705;55.592;37.460;2023-07-20T01:08:18;97781.78;;;12.49;100.00
58295;BME280;45705;55.592;37.460;2023-07-20T01:10:54;97789.25;;;12.52;100.00
58295;BME280;45705;55.592;37.460;2023-07-20T01:13:23;97786.25;;;12.57;100.00
58295;BME280;45705;55.592;37.460;2023-07-20T01:16:01;97783.19;;;12.43;100.00
58295;BME280;45705;55.592;37.460;2023-07-20T01:18:28;97781.34;;;12.47;100.00
58295;BME280;45705;55.592;37.460;2023-07-20T01:20:59;97782.81;;;12.60;100.00
58295;BME280;45705;55.592;37.460;2023-07-20T01:24:04;97784.47;;;12.65;100.00
58295;BME280;45705;55.592;37.460;2023-07-20T01:26:57;97788.41;;;12.68;100.00
58295;BME280;45705;55.592;37.460;2023-07-20T01:31:54;97786.31;;;12.61;100.00
58295;BME280;45705;55.592;37.460;2023-07-20T01:34:23;97796.00;;;12.58;100.00
58295;BME280;45705;55.592;37.460;2023-07-20T01:36:52;97797.88;;;12.54;100.00
58295;BME280;45705;55.592;37.460;2023-07-20T01:39:20;97786.78;;;12.47;100.00
58295;BME280;45705;55.592;37.460;2023-07-20T01:41:46;97789.84;;;12.61;100.00
58295;BME280;45705;55.592;37.460;2023-07-20T01:44:13;97787.84;;;12.58;100.00
58295;BME280;45705;55.592;37.460;2023-07-20T01:46:38;97785.09;;;12.58;100.00
58295;BME280;45705;55.592;37.460;2023-07-20T01:49:04;97797.31;;;12.65;100.00
58295;BME280;45705;55.592;37.460;2023-07-20T01:51:31;97792.41;;;12.54;100.00
58295;BME280;45705;55.592;37.460;2023-07-20T01:53:57;97791.69;;;12.57;100.00
58295;BME280;45705;55.592;37.460;2023-07-20T01:56:23;97794.72;;;12.52;100.00
58295;BME280;45705;55.592;37.460;2023-07-20T01:58:49;97780.94;;;12.65;100.00
58295;BME280;45705;55.592;37.460;2023-07-20T02:01:15;97797.19;;;12.77;100.00
58295;BME280;45705;55.592;37.460;2023-07-20T02:03:41;97791.09;;;12.64;100.00
58295;BME280;45705;55.592;37.460;2023-07-20T02:06:07;97802.59;;;12.57;100.00
58295;BME280;45705;55.592;37.460;2023-07-20T02:08:33;97796.25;;;12.69;100.00
58295;BME280;45705;55.592;37.460;2023-07-20T02:10:59;97801.34;;;12.71;100.00
58295;BME280;45705;55.592;37.460;2023-07-20T02:13:25;97803.63;;;12.69;100.00
58295;BME280;45705;55.592;37.460;2023-07-20T02:15:50;97801.00;;;12.72;100.00
58295;BME280;45705;55.592;37.460;2023-07-20T02:18:17;97795.19;;;12.74;100.00
58295;BME280;45705;55.592;37.460;2023-07-20T02:20:42;97799.00;;;12.53;100.00
58295;BME280;45705;55.592;37.460;2023-07-20T02:23:08;97798.63;;;12.71;100.00
58295;BME280;45705;55.592;37.460;2023-07-20T02:25:34;97803.06;;;12.79;100.00
58295;BME280;45705;55.592;37.460;2023-07-20T02:28:00;97801.25;;;12.67;100.00
58295;BME280;45705;55.592;37.460;2023-07-20T02:30:26;97801.66;;;12.85;100.00
58295;BME280;45705;55.592;37.460;2023-07-20T02:32:54;97795.31;;;12.81;100.00
58295;BME280;45705;55.592;37.460;2023-07-20T02:35:22;97809.72;;;12.97;100.00
58295;BME280;45705;55.592;37.460;2023-07-20T02:37:47;97811.44;;;12.86;100.00
58295;BME280;45705;55.592;37.460;2023-07-20T02:40:13;97806.56;;;12.95;100.00
58295;BME280;45705;55.592;37.460;2023-07-20T02:42:39;97806.69;;;13.03;100.00
58295;BME280;45705;55.592;37.460;2023-07-20T02:45:06;97812.50;;;12.82;100.00
58295;BME280;45705;55.592;37.460;2023-07-20T02:47:34;97814.25;;;12.90;100.00
58295;BME280;45705;55.592;37.460;2023-07-20T02:50:01;97817.63;;;13.03;100.00
58295;BME280;45705;55.592;37.460;2023-07-20T02:52:31;97817.19;;;13.20;100.00
58295;BME280;45705;55.592;37.460;2023-07-20T02:54:57;97821.50;;;13.02;100.00
58295;BME280;45705;55.592;37.460;2023-07-20T02:57:24;97822.66;;;13.20;100.00
58295;BME280;45705;55.592;37.460;2023-07-20T02:59:49;97827.25;;;13.16;100.00
58295;BME280;45705;55.592;37.460;2023-07-20T03:02:15;97817.78;;;13.29;100.00
58295;BME280;45705;55.592;37.460;2023-07-20T03:04:42;97833.06;;;13.30;100.00
58295;BME280;45705;55.592;37.460;2023-07-20T03:07:08;97820.28;;;13.34;100.00
58295;BME280;45705;55.592;37.460;2023-07-20T03:09:34;97829.31;;;13.38;100.00
58295;BME280;45705;55.592;37.460;2023-07-20T03:12:00;97821.84;;;13.35;100.00
58295;BME280;45705;55.592;37.460;2023-07-20T03:14:27;97832.41;;;13.37;100.00
58295;BME280;45705;55.592;37.460;2023-07-20T03:16:55;97825.72;;;13.54;100.00
58295;BME280;45705;55.592;37.460;2023-07-20T03:19:21;97820.25;;;13.54;100.00
58295;BME280;45705;55.592;37.460;2023-07-20T03:21:47;97819.69;;;13.45;100.00
58295;BME280;45705;55.592;37.460;2023-07-20T03:24:14;97824.28;;;13.60;100.00
58295;BME280;45705;55.592;37.460;2023-07-20T03:26:42;97819.19;;;15.01;100.00
58295;BME280;45705;55.592;37.460;2023-07-20T03:29:08;97823.50;;;16.92;99.64
58295;BME280;45705;55.592;37.460;2023-07-20T03:31:34;97823.03;;;17.60;89.28
58295;BME280;45705;55.592;37.460;2023-07-20T03:34:02;97826.69;;;18.72;79.13
58295;BME280;45705;55.592;37.460;2023-07-20T03:36:28;97817.19;;;20.04;71.13
58295;BME280;45705;55.592;37.460;2023-07-20T03:38:54;97818.66;;;19.46;72.35
58295;BME280;45705;55.592;37.460;2023-07-20T03:41:19;97820.81;;;19.94;70.96
58295;BME280;45705;55.592;37.460;2023-07-20T03:43:47;97817.84;;;21.51;62.27
58295;BME280;45705;55.592;37.460;2023-07-20T03:46:14;97820.94;;;20.84;62.43
58295;BME280;45705;55.592;37.460;2023-07-20T03:48:40;97822.59;;;21.13;62.90
58295;BME280;45705;55.592;37.460;2023-07-20T03:51:06;97819.06;;;22.35;57.04
58295;BME280;45705;55.592;37.460;2023-07-20T03:53:32;97819.34;;;23.32;52.59
58295;BME280;45705;55.592;37.460;2023-07-20T03:55:58;97812.59;;;22.89;53.87
58295;BME280;45705;55.592;37.460;2023-07-20T03:58:24;97817.41;;;23.09;53.00
58295;BME280;45705;55.592;37.460;2023-07-20T04:00:51;97821.75;;;21.19;59.66
58295;BME280;45705;55.592;37.460;2023-07-20T04:03:20;97823.34;;;22.64;54.65
58295;BME280;45705;55.592;37.460;2023-07-20T04:05:46;97826.09;;;22.64;54.60
58295;BME280;45705;55.592;37.460;2023-07-20T04:08:12;97833.47;;;21.31;60.43
58295;BME280;45705;55.592;37.460;2023-07-20T04:10:39;97832.69;;;20.92;62.55
58295;BME280;45705;55.592;37.460;2023-07-20T04:13:08;97828.44;;;21.87;58.19
58295;BME280;45705;55.592;37.460;2023-07-20T04:15:34;97826.25;;;22.02;57.16
58295;BME280;45705;55.592;37.460;2023-07-20T04:18:00;97833.53;;;21.23;59.66
58295;BME280;45705;55.592;37.460;2023-07-20T04:20:26;97837.41;;;21.68;59.50
58295;BME280;45705;55.592;37.460;2023-07-20T04:22:53;97835.75;;;21.74;57.20
58295;BME280;45705;55.592;37.460;2023-07-20T04:25:19;97834.31;;;21.62;57.80
58295;BME280;45705;55.592;37.460;2023-07-20T04:27:46;97839.91;;;22.67;53.79
58295;BME280;45705;55.592;37.460;2023-07-20T04:30:13;97840.25;;;22.93;53.32
58295;BME280;45705;55.592;37.460;2023-07-20T04:32:40;97843.25;;;23.02;52.61
58295;BME280;45705;55.592;37.460;2023-07-20T04:35:53;97828.59;;;24.02;48.65
58295;BME280;45705;55.592;37.460;2023-07-20T04:38:23;97838.31;;;24.79;46.59
58295;BME280;45705;55.592;37.460;2023-07-20T04:40:57;97836.22;;;24.17;47.08
58295;BME280;45705;55.592;37.460;2023-07-20T04:43:23;97835.75;;;25.01;45.19
58295;BME280;45705;55.592;37.460;2023-07-20T04:45:49;97836.06;;;25.20;44.54
58295;BME280;45705;55.592;37.460;2023-07-20T04:48:16;97840.94;;;24.70;46.09
58295;BME280;45705;55.592;37.460;2023-07-20T04:50:51;97837.63;;;25.21;44.45
58295;BME280;45705;55.592;37.460;2023-07-20T04:53:17;97838.59;;;25.14;43.89
58295;BME280;45705;55.592;37.460;2023-07-20T04:55:48;97831.69;;;25.77;42.70
58295;BME280;45705;55.592;37.460;2023-07-20T04:58:19;97832.97;;;26.02;41.13
58295;BME280;45705;55.592;37.460;2023-07-20T05:00:45;97831.72;;;26.03;41.60
58295;BME280;45705;55.592;37.460;2023-07-20T05:03:11;97828.03;;;27.05;39.53
58295;BME280;45705;55.592;37.460;2023-07-20T05:05:37;97841.19;;;26.44;40.57
58295;BME280;45705;55.592;37.460;2023-07-20T05:08:06;97845.94;;;25.79;41.29
58295;BME280;45705;55.592;37.460;2023-07-20T05:10:32;97843.59;;;26.93;38.67
58295;BME280;45705;55.592;37.460;2023-07-20T05:12:59;97831.81;;;27.11;38.12
58295;BME280;45705;55.592;37.460;2023-07-20T05:15:25;97836.31;;;25.97;40.77
58295;BME280;45705;55.592;37.460;2023-07-20T05:17:52;97843.03;;;27.86;36.62
58295;BME280;45705;55.592;37.460;2023-07-20T05:20:18;97840.38;;;27.17;37.70
58295;BME280;45705;55.592;37.460;2023-07-20T05:22:44;97842.03;;;26.92;37.63
58295;BME280;45705;55.592;37.460;2023-07-20T05:25:10;97848.28;;;28.06;34.76
58295;BME280;45705;55.592;37.460;2023-07-20T05:27:37;97841.84;;;28.28;34.49
58295;BME280;45705;55.592;37.460;2023-07-20T05:30:04;97834.81;;;26.82;38.04
58295;BME280;45705;55.592;37.460;2023-07-20T05:32:32;97848.09;;;27.47;35.19
58295;BME280;45705;55.592;37.460;2023-07-20T05:34:57;97845.72;;;27.24;36.03
58295;BME280;45705;55.592;37.460;2023-07-20T05:37:23;97848.00;;;27.38;34.88
58295;BME280;45705;55.592;37.460;2023-07-20T05:39:49;97838.16;;;28.99;32.88
58295;BME280;45705;55.592;37.460;2023-07-20T05:42:15;97840.94;;;27.11;35.76
58295;BME280;45705;55.592;37.460;2023-07-20T05:44:41;97846.22;;;27.76;34.29
58295;BME280;45705;55.592;37.460;2023-07-20T05:47:07;97840.94;;;28.81;32.63
58295;BME280;45705;55.592;37.460;2023-07-20T05:49:34;97839.38;;;28.71;32.85
58295;BME280;45705;55.592;37.460;2023-07-20T05:52:00;97833.63;;;28.74;32.23
58295;BME280;45705;55.592;37.460;2023-07-20T05:54:27;97832.88;;;28.83;32.01
58295;BME280;45705;55.592;37.460;2023-07-20T05:56:54;97837.75;;;28.51;31.26
58295;BME280;45705;55.592;37.460;2023-07-20T05:59:20;97837.41;;;29.08;30.75
58295;BME280;45705;55.592;37.460;2023-07-20T06:01:45;97838.22;;;29.18;30.81
58295;BME280;45705;55.592;37.460;2023-07-20T06:04:14;97831.88;;;28.58;31.18
58295;BME280;45705;55.592;37.460;2023-07-20T06:06:40;97830.38;;;27.95;32.67
58295;BME280;45705;55.592;37.460;2023-07-20T06:09:06;97840.94;;;28.31;32.07
58295;BME280;45705;55.592;37.460;2023-07-20T06:11:40;97834.16;;;28.51;31.34
58295;BME280;45705;55.592;37.460;2023-07-20T06:14:06;97840.09;;;28.12;32.37
58295;BME280;45705;55.592;37.460;2023-07-20T06:16:32;97843.44;;;28.88;32.00
58295;BME280;45705;55.592;37.460;2023-07-20T06:19:00;97837.41;;;29.17;31.35
58295;BME280;45705;55.592;37.460;2023-07-20T06:21:25;97845.13;;;28.76;31.15
58295;BME280;45705;55.592;37.460;2023-07-20T06:23:56;97839.41;;;29.44;31.10
58295;BME280;45705;55.592;37.460;2023-07-20T06:26:23;97837.41;;;29.17;31.96
58295;BME280;45705;55.592;37.460;2023-07-20T06:28:50;97849.81;;;27.54;33.81
58295;BME280;45705;55.592;37.460;2023-07-20T06:31:16;97855.16;;;28.55;32.40
58295;BME280;45705;55.592;37.460;2023-07-20T06:33:42;97847.59;;;28.24;33.01
58295;BME280;45705;55.592;37.460;2023-07-20T06:36:08;97845.91;;;28.86;31.29
58295;BME280;45705;55.592;37.460;2023-07-20T06:38:34;97841.91;;;29.61;30.39
58295;BME280;45705;55.592;37.460;2023-07-20T06:40:59;97847.78;;;28.89;31.27
58295;BME280;45705;55.592;37.460;2023-07-20T06:43:25;97842.31;;;28.76;30.82
58295;BME280;45705;55.592;37.460;2023-07-20T06:45:52;97846.75;;;29.42;30.91
58295;BME280;45705;55.592;37.460;2023-07-20T06:48:21;97838.66;;;30.14;29.19
58295;BME280;45705;55.592;37.460;2023-07-20T06:50:47;97835.34;;;29.82;29.46
58295;BME280;45705;55.592;37.460;2023-07-20T06:53:13;97857.13;;;29.60;30.10
58295;BME280;45705;55.592;37.460;2023-07-20T06:55:39;97844.59;;;30.07;29.58
58295;BME280;45705;55.592;37.460;2023-07-20T06:58:07;97854.41;;;28.55;31.35
58295;BME280;45705;55.592;37.460;2023-07-20T07:00:33;97849.78;;;28.70;31.68
58295;BME280;45705;55.592;37.460;2023-07-20T07:02:58;97854.44;;;31.03;28.68
58295;BME280;45705;55.592;37.460;2023-07-20T07:05:24;97854.69;;;29.34;30.37
58295;BME280;45705;55.592;37.460;2023-07-20T07:07:50;97861.22;;;29.22;29.60
58295;BME280;45705;55.592;37.460;2023-07-20T07:10:16;97854.63;;;28.88;29.86
58295;BME280;45705;55.592;37.460;2023-07-20T07:12:41;97856.63;;;27.75;31.82
58295;BME280;45705;55.592;37.460;2023-07-20T07:15:08;97864.97;;;27.88;31.39
58295;BME280;45705;55.592;37.460;2023-07-20T07:17:34;97859.88;;;28.67;30.41
58295;BME280;45705;55.592;37.460;2023-07-20T07:20:00;97862.81;;;27.13;31.64
58295;BME280;45705;55.592;37.460;2023-07-20T07:22:30;97870.34;;;26.90;32.77
58295;BME280;45705;55.592;37.460;2023-07-20T07:24:56;97862.06;;;28.63;30.69
58295;BME280;45705;55.592;37.460;2023-07-20T07:27:23;97865.81;;;28.88;30.39
58295;BME280;45705;55.592;37.460;2023-07-20T07:29:48;97857.41;;;28.70;30.26
58295;BME280;45705;55.592;37.460;2023-07-20T07:32:15;97864.22;;;26.83;32.54
58295;BME280;45705;55.592;37.460;2023-07-20T07:34:43;97873.13;;;25.88;33.90
58295;BME280;45705;55.592;37.460;2023-07-20T07:37:12;97874.56;;;27.43;31.99
58295;BME280;45705;55.592;37.460;2023-07-20T07:39:38;97875.66;;;27.10;33.18
58295;BME280;45705;55.592;37.460;2023-07-20T07:42:05;97883.59;;;25.84;34.68
58295;BME280;45705;55.592;37.460;2023-07-20T07:44:31;97872.97;;;25.66;35.34
58295;BME280;45705;55.592;37.460;2023-07-20T07:46:57;97884.09;;;25.66;35.42
58295;BME280;45705;55.592;37.460;2023-07-20T07:49:23;97874.50;;;25.08;37.02
58295;BME280;45705;55.592;37.460;2023-07-20T07:51:49;97872.34;;;24.83;37.44
58295;BME280;45705;55.592;37.460;2023-07-20T07:54:15;97883.03;;;24.85;37.41
58295;BME280;45705;55.592;37.460;2023-07-20T07:56:41;97871.22;;;24.81;37.29
58295;BME280;45705;55.592;37.460;2023-07-20T07:59:08;97891.56;;;23.48;39.55
58295;BME280;45705;55.592;37.460;2023-07-20T08:01:34;97877.53;;;23.95;38.79
58295;BME280;45705;55.592;37.460;2023-07-20T08:04:00;97892.19;;;23.76;40.32
58295;BME280;45705;55.592;37.460;2023-07-20T08:06:27;97878.09;;;23.27;40.21
58295;BME280;45705;55.592;37.460;2023-07-20T08:08:53;97888.25;;;23.13;42.63
58295;BME280;45705;55.592;37.460;2023-07-20T08:11:18;97880.59;;;23.41;41.98
58295;BME280;45705;55.592;37.460;2023-07-20T08:13:44;97884.53;;;22.96;43.07
58295;BME280;45705;55.592;37.460;2023-07-20T08:16:10;97893.53;;;22.80;44.18
58295;BME280;45705;55.592;37.460;2023-07-20T08:18:36;97870.25;;;22.98;43.38
58295;BME280;45705;55.592;37.460;2023-07-20T08:21:02;97887.81;;;22.40;44.29
58295;BME280;45705;55.592;37.460;2023-07-20T08:23:29;97886.31;;;22.36;43.98
58295;BME280;45705;55.592;37.460;2023-07-20T08:25:55;97888.09;;;22.73;44.23
58295;BME280;45705;55.592;37.460;2023-07-20T08:28:20;97888.09;;;22.97;43.72
58295;BME280;45705;55.592;37.460;2023-07-20T08:30:47;97889.22;;;22.21;45.43
58295;BME280;45705;55.592;37.460;2023-07-20T08:33:15;97891.47;;;22.85;43.49
58295;BME280;45705;55.592;37.460;2023-07-20T08:35:42;97890.16;;;22.42;44.61
58295;BME280;45705;55.592;37.460;2023-07-20T08:38:08;97895.41;;;22.60;44.72
58295;BME280;45705;55.592;37.460;2023-07-20T08:40:40;97892.63;;;22.36;45.55
58295;BME280;45705;55.592;37.460;2023-07-20T08:43:06;97890.50;;;22.17;46.66
58295;BME280;45705;55.592;37.460;2023-07-20T08:45:36;97879.31;;;22.28;46.50
58295;BME280;45705;55.592;37.460;2023-07-20T08:48:05;97890.00;;;22.53;46.90
58295;BME280;45705;55.592;37.460;2023-07-20T08:50:31;97885.09;;;22.88;47.11
58295;BME280;45705;55.592;37.460;2023-07-20T08:52:58;97873.25;;;22.60;46.39
58295;BME280;45705;55.592;37.460;2023-07-20T08:55:28;97884.88;;;22.24;47.03
58295;BME280;45705;55.592;37.460;2023-07-20T08:57:55;97878.59;;;22.20;46.72
58295;BME280;45705;55.592;37.460;2023-07-20T09:00:23;97873.50;;;22.46;46.71
58295;BME280;45705;55.592;37.460;2023-07-20T09:02:51;97880.63;;;22.70;46.64
58295;BME280;45705;55.592;37.460;2023-07-20T09:05:21;97880.28;;;22.68;45.51
58295;BME280;45705;55.592;37.460;2023-07-20T09:07:48;97880.28;;;23.15;44.49
58295;BME280;45705;55.592;37.460;2023-07-20T09:10:14;97877.72;;;23.01;45.06
58295;BME280;45705;55.592;37.460;2023-07-20T09:12:42;97878.50;;;23.05;44.93
58295;BME280;45705;55.592;37.460;2023-07-20T09:15:09;97886.53;;;22.72;44.87
58295;BME280;45705;55.592;37.460;2023-07-20T09:17:35;97882.19;;;22.95;44.15
58295;BME280;45705;55.592;37.460;2023-07-20T09:20:05;97887.97;;;22.57;44.76
58295;BME280;45705;55.592;37.460;2023-07-20T09:22:37;97891.47;;;22.61;44.83
58295;BME280;45705;55.592;37.460;2023-07-20T09:27:38;97892.56;;;22.91;46.24
58295;BME280;45705;55.592;37.460;2023-07-20T09:30:05;97889.63;;;22.78;47.47
58295;BME280;45705;55.592;37.460;2023-07-20T09:32:41;97885.31;;;22.97;46.92
58295;BME280;45705;55.592;37.460;2023-07-20T10:08:12;97886.44;;;22.25;47.68
58295;BME280;45705;55.592;37.460;2023-07-20T10:10:40;97880.00;;;22.35;47.09
58295;BME280;45705;55.592;37.460;2023-07-20T10:13:13;97882.56;;;22.73;47.28
58295;BME280;45705;55.592;37.460;2023-07-20T10:15:46;97873.75;;;22.78;45.84
58295;BME280;45705;55.592;37.460;2023-07-20T10:20:40;97870.03;;;22.65;45.23
58295;BME280;45705;55.592;37.460;2023-07-20T10:23:07;97877.19;;;22.86;44.95
58295;BME280;45705;55.592;37.460;2023-07-20T10:25:33;97881.47;;;22.91;45.43
58295;BME280;45705;55.592;37.460;2023-07-20T10:28:05;97885.47;;;22.90;45.79
58295;BME280;45705;55.592;37.460;2023-07-20T10:30:34;97891.16;;;22.28;46.88
58295;BME280;45705;55.592;37.460;2023-07-20T10:33:05;97894.75;;;21.94;48.61
58295;BME280;45705;55.592;37.460;2023-07-20T10:35:31;97892.34;;;21.96;49.24
58295;BME280;45705;55.592;37.460;2023-07-20T10:38:15;97898.53;;;22.08;47.15
58295;BME280;45705;55.592;37.460;2023-07-20T10:40:41;97905.28;;;22.07;45.71
58295;BME280;45705;55.592;37.460;2023-07-20T10:43:08;97905.00;;;22.28;44.27
58295;BME280;45705;55.592;37.460;2023-07-20T10:45:36;97910.72;;;21.83;45.52
58295;BME280;45705;55.592;37.460;2023-07-20T10:50:42;97891.88;;;22.01;47.07
58295;BME280;45705;55.592;37.460;2023-07-20T10:53:19;97899.81;;;21.69;46.81
58295;BME280;45705;55.592;37.460;2023-07-20T10:55:45;97895.50;;;21.98;46.34
58295;BME280;45705;55.592;37.460;2023-07-20T10:58:15;97890.47;;;21.55;48.05
58295;BME280;45705;55.592;37.460;2023-07-20T11:00:58;97891.81;;;21.40;49.01
58295;BME280;45705;55.592;37.460;2023-07-20T11:03:38;97904.34;;;21.52;49.96
58295;BME280;45705;55.592;37.460;2023-07-20T11:09:04;97918.97;;;21.52;52.95
58295;BME280;45705;55.592;37.460;2023-07-20T11:11:31;97915.09;;;21.46;52.62
58295;BME280;45705;55.592;37.460;2023-07-20T11:13:59;97935.63;;;21.45;50.96
58295;BME280;45705;55.592;37.460;2023-07-20T11:16:39;97933.44;;;21.26;49.26
58295;BME280;45705;55.592;37.460;2023-07-20T11:19:10;97926.91;;;21.50;48.43
58295;BME280;45705;55.592;37.460;2023-07-20T11:21:40;97933.50;;;21.18;50.75
58295;BME280;45705;55.592;37.460;2023-07-20T11:24:07;97932.88;;;21.45;52.17
58295;BME280;45705;55.592;37.460;2023-07-20T11:26:40;97926.81;;;21.57;53.47
58295;BME280;45705;55.592;37.460;2023-07-20T11:29:06;97928.88;;;21.84;54.18
58295;BME280;45705;55.592;37.460;2023-07-20T11:31:35;97924.66;;;22.07;53.64
58295;BME280;45705;55.592;37.460;2023-07-20T11:34:01;97931.94;;;22.24;54.03
58295;BME280;45705;55.592;37.460;2023-07-20T11:36:27;97916.63;;;21.85;54.62
58295;BME280;45705;55.592;37.460;2023-07-20T11:38:53;97913.66;;;21.31;55.56
58295;BME280;45705;55.592;37.460;2023-07-20T11:41:19;97922.84;;;21.58;54.77
58295;BME280;45705;55.592;37.460;2023-07-20T11:43:47;97914.59;;;22.20;53.01
58295;BME280;45705;55.592;37.460;2023-07-20T11:46:13;97904.72;;;21.88;54.52
58295;BME280;45705;55.592;37.460;2023-07-20T11:48:38;97917.06;;;21.80;54.09
58295;BME280;45705;55.592;37.460;2023-07-20T11:51:05;97917.47;;;21.78;54.78
58295;BME280;45705;55.592;37.460;2023-07-20T11:53:31;97918.28;;;21.41;56.06
58295;BME280;45705;55.592;37.460;2023-07-20T11:55:59;97925.50;;;21.28;59.92
58295;BME280;45705;55.592;37.460;2023-07-20T11:58:27;97931.09;;;21.20;65.22
58295;BME280;45705;55.592;37.460;2023-07-20T12:00:53;97928.22;;;20.90;65.42
58295;BME280;45705;55.592;37.460;2023-07-20T12:03:20;97925.66;;;21.13;65.80
58295;BME280;45705;55.592;37.460;2023-07-20T12:05:46;97917.25;;;20.82;66.26
58295;BME280;45705;55.592;37.460;2023-07-20T12:08:11;97924.06;;;21.12;63.86
58295;BME280;45705;55.592;37.460;2023-07-20T12:10:39;97922.44;;;21.18;62.05
58295;BME280;45705;55.592;37.460;2023-07-20T12:13:10;97933.50;;;21.18;62.67
58295;BME280;45705;55.592;37.460;2023-07-20T12:15:39;97935.44;;;21.21;61.75
58295;BME280;45705;55.592;37.460;2023-07-20T12:18:05;97926.59;;;20.96;62.40
58295;BME280;45705;55.592;37.460;2023-07-20T12:20:33;97933.88;;;21.20;62.66
58295;BME280;45705;55.592;37.460;2023-07-20T12:23:08;97948.78;;;20.85;62.86
58295;BME280;45705;55.592;37.460;2023-07-20T12:25:39;97974.25;;;20.51;71.38
58295;BME280;45705;55.592;37.460;2023-07-20T12:28:12;97975.41;;;19.30;80.19
58295;BME280;45705;55.592;37.460;2023-07-20T12:30:41;97977.72;;;18.63;86.35
58295;BME280;45705;55.592;37.460;2023-07-20T12:33:08;97959.25;;;18.60;94.07
58295;BME280;45705;55.592;37.460;2023-07-20T12:35:34;97954.97;;;18.98;91.90
58295;BME280;45705;55.592;37.460;2023-07-20T12:38:00;97951.03;;;19.03;92.00
58295;BME280;45705;55.592;37.460;2023-07-20T12:40:27;97951.41;;;19.41;93.49
58295;BME280;45705;55.592;37.460;2023-07-20T12:42:53;97951.78;;;19.39;92.16
58295;BME280;45705;55.592;37.460;2023-07-20T12:45:18;97952.53;;;19.76;92.18
58295;BME280;45705;55.592;37.460;2023-07-20T12:47:44;97953.28;;;19.80;88.61
58295;BME280;45705;55.592;37.460;2023-07-20T12:50:11;97951.75;;;19.57;88.01
58295;BME280;45705;55.592;37.460;2023-07-20T12:52:38;97946.56;;;19.88;87.37
58295;BME280;45705;55.592;37.460;2023-07-20T12:55:06;97943.69;;;20.10;89.34
58295;BME280;45705;55.592;37.460;2023-07-20T12:57:36;97943.22;;;20.22;84.11
58295;BME280;45705;55.592;37.460;2023-07-20T13:00:03;97942.78;;;20.34;79.85
58295;BME280;45705;55.592;37.460;2023-07-20T13:02:33;97938.50;;;20.26;79.24
58295;BME280;45705;55.592;37.460;2023-07-20T13:04:59;97938.06;;;20.27;80.21
58295;BME280;45705;55.592;37.460;2023-07-20T13:07:36;97936.28;;;19.92;77.32
58295;BME280;45705;55.592;37.460;2023-07-20T13:10:03;97925.63;;;19.98;77.10
58295;BME280;45705;55.592;37.460;2023-07-20T13:12:33;97930.78;;;19.85;77.92
58295;BME280;45705;55.592;37.460;2023-07-20T13:15:02;97919.19;;;20.26;77.53
58295;BME280;45705;55.592;37.460;2023-07-20T13:17:33;97931.13;;;20.05;78.51
58295;BME280;45705;55.592;37.460;2023-07-20T13:19:59;97933.47;;;20.06;74.38
58295;BME280;45705;55.592;37.460;2023-07-20T13:22:25;97926.63;;;20.33;73.45
58295;BME280;45705;55.592;37.460;2023-07-20T13:24:52;97917.56;;;20.32;73.29
58295;BME280;45705;55.592;37.460;2023-07-20T13:27:19;97917.84;;;20.45;73.06
58295;BME280;45705;55.592;37.460;2023-07-20T13:29:45;97919.25;;;20.12;69.84
58295;BME280;45705;55.592;37.460;2023-07-20T13:32:15;97913.66;;;20.26;68.97
58295;BME280;45705;55.592;37.460;2023-07-20T13:34:41;97912.81;;;20.36;68.53
58295;BME280;45705;55.592;37.460;2023-07-20T13:37:08;97908.06;;;20.33;69.34